Time;durP1;ratioP1;P1;durP2;ratioP2;P2;SDS_P1;SDS_P2;PMS_P1;PMS_P2;Temp;Humidity;BMP_temperature;BMP_pressure;BME280_temperature;BME280_humidity;BME280_pressure;Samples;Min_cycle;Max_cycle;Signal;HPM_P1;HPM_P2
2021/09/07 00:00:46;;;;;;;1.07;0.97;;;15.50;99.90;;;;;;4974906;28;20952;-87
2021/09/07 00:03:13;;;;;;;3.37;1.50;;;15.40;99.90;;;;;;4974915;28;20464;-87
2021/09/07 00:05:39;;;;;;;2.80;1.43;;;15.40;99.90;;;;;;4974849;28;20449;-87
2021/09/07 00:08:08;;;;;;;3.03;1.20;;;15.40;99.90;;;;;;4975029;28;20446;-87
2021/09/07 00:10:34;;;;;;;1.40;1.20;;;15.40;99.90;;;;;;4974679;28;20448;-87
2021/09/07 00:13:01;;;;;;;2.17;1.10;;;15.50;99.90;;;;;;4974677;28;20444;-87
2021/09/07 00:15:28;;;;;;;1.93;1.07;;;15.50;99.90;;;;;;4974946;28;20452;-87
2021/09/07 00:17:55;;;;;;;2.00;0.90;;;15.50;99.90;;;;;;4975061;28;20445;-87
2021/09/07 00:20:23;;;;;;;2.60;1.53;;;15.50;99.90;;;;;;4974940;28;20468;-87
2021/09/07 00:22:50;;;;;;;1.80;1.07;;;15.50;99.90;;;;;;4974889;28;20450;-87
2021/09/07 00:25:18;;;;;;;1.77;0.70;;;15.50;99.90;;;;;;4974661;28;20469;-87
2021/09/07 00:27:45;;;;;;;3.07;1.47;;;15.40;99.90;;;;;;4975054;28;20453;-87
2021/09/07 00:30:13;;;;;;;2.70;1.07;;;15.40;99.90;;;;;;4974692;28;20857;-87
2021/09/07 00:32:40;;;;;;;3.13;1.50;;;15.40;99.90;;;;;;4975042;28;20982;-87
2021/09/07 00:35:11;;;;;;;2.30;1.30;;;15.30;99.90;;;;;;4974664;28;20484;-87
2021/09/07 00:37:38;;;;;;;2.70;1.80;;;15.30;99.90;;;;;;4974818;28;20438;-87
2021/09/07 00:40:06;;;;;;;4.83;1.10;;;15.30;99.90;;;;;;4974718;28;20992;-87
2021/09/07 00:42:36;;;;;;;2.27;2.07;;;15.30;99.90;;;;;;4974858;28;20454;-87
2021/09/07 00:45:04;;;;;;;2.23;1.10;;;15.20;99.90;;;;;;4975241;28;20492;-87
2021/09/07 00:47:31;;;;;;;1.10;0.90;;;15.20;99.90;;;;;;4974646;28;20460;-87
2021/09/07 00:49:58;;;;;;;2.77;1.00;;;15.20;99.90;;;;;;4974391;28;20491;-87
2021/09/07 00:52:26;;;;;;;2.33;1.27;;;15.10;99.90;;;;;;4977746;28;20460;-87
2021/09/07 00:54:54;;;;;;;1.20;0.70;;;15.20;99.90;;;;;;4977753;28;20469;-87
2021/09/07 00:57:24;;;;;;;3.33;1.30;;;15.10;99.90;;;;;;4978128;28;20433;-87
2021/09/07 00:59:53;;;;;;;1.43;1.33;;;15.00;99.90;;;;;;4978090;28;20817;-87
2021/09/07 01:02:20;;;;;;;2.00;1.43;;;15.00;99.90;;;;;;4978077;28;20445;-87
2021/09/07 01:04:47;;;;;;;3.03;1.27;;;15.10;99.90;;;;;;4977956;28;20981;-88
2021/09/07 01:07:14;;;;;;;3.13;1.40;;;15.00;99.90;;;;;;4977809;28;20448;-87
2021/09/07 01:09:41;;;;;;;1.37;0.80;;;15.00;99.90;;;;;;4977701;28;20484;-87
2021/09/07 01:12:09;;;;;;;1.23;0.93;;;14.90;99.90;;;;;;4977918;28;20458;-87
2021/09/07 01:14:39;;;;;;;1.47;1.10;;;14.90;99.90;;;;;;4977621;28;20828;-87
2021/09/07 01:17:12;;;;;;;1.53;1.03;;;14.90;99.90;;;;;;4977718;28;20445;-87
2021/09/07 01:19:41;;;;;;;2.80;1.37;;;14.90;99.90;;;;;;4977727;28;20438;-87
2021/09/07 01:22:08;;;;;;;1.30;1.10;;;14.90;99.90;;;;;;4977620;28;20450;-87
2021/09/07 01:24:36;;;;;;;3.47;1.10;;;14.90;99.90;;;;;;4977589;28;20473;-87
2021/09/07 01:27:05;;;;;;;4.53;1.63;;;14.90;99.90;;;;;;4977671;28;20453;-87
2021/09/07 01:29:33;;;;;;;0.83;0.80;;;14.90;99.90;;;;;;4977006;28;20597;-87
2021/09/07 01:32:01;;;;;;;3.33;1.30;;;14.90;99.90;;;;;;4977235;28;20477;-87
2021/09/07 01:34:28;;;;;;;1.37;1.27;;;14.80;99.90;;;;;;4977235;28;20863;-87
2021/09/07 01:36:56;;;;;;;4.20;1.13;;;14.80;99.90;;;;;;4977514;28;20460;-86
2021/09/07 01:39:23;;;;;;;4.07;1.70;;;14.80;99.90;;;;;;4977778;28;20449;-87
2021/09/07 01:41:51;;;;;;;5.40;1.97;;;14.80;99.90;;;;;;4977311;28;20453;-87
2021/09/07 01:44:19;;;;;;;1.83;1.37;;;14.80;99.90;;;;;;4977208;28;20488;-87
2021/09/07 01:46:47;;;;;;;1.43;1.20;;;14.70;99.90;;;;;;4977109;28;20438;-87
2021/09/07 01:49:14;;;;;;;2.20;1.10;;;14.70;99.90;;;;;;4977097;28;20489;-87
2021/09/07 01:51:42;;;;;;;3.00;1.17;;;14.70;99.90;;;;;;4976932;28;20820;-87
2021/09/07 01:54:10;;;;;;;1.50;0.73;;;14.70;99.90;;;;;;4977086;28;20469;-87
2021/09/07 01:56:37;;;;;;;3.80;1.50;;;14.70;99.90;;;;;;4977003;28;20804;-87
2021/09/07 01:59:06;;;;;;;2.33;1.50;;;14.70;99.90;;;;;;4976559;28;20449;-87
2021/09/07 02:01:33;;;;;;;1.27;1.00;;;14.60;99.90;;;;;;4976954;28;20434;-87
2021/09/07 02:03:59;;;;;;;1.30;1.20;;;14.60;99.90;;;;;;4976631;28;20468;-87
2021/09/07 02:06:28;;;;;;;1.33;0.90;;;14.50;99.90;;;;;;4976736;28;20460;-87
2021/09/07 02:08:55;;;;;;;1.53;1.43;;;14.50;99.90;;;;;;4976814;28;20524;-87
2021/09/07 02:11:21;;;;;;;1.80;0.97;;;14.50;99.90;;;;;;4976464;28;20968;-87
2021/09/07 02:13:48;;;;;;;2.10;1.13;;;14.50;99.90;;;;;;4976619;28;20977;-87
2021/09/07 02:16:16;;;;;;;1.73;1.23;;;14.50;99.90;;;;;;4976548;28;20437;-86
2021/09/07 02:18:43;;;;;;;2.77;0.90;;;14.40;99.90;;;;;;4976355;28;20437;-87
2021/09/07 02:21:10;;;;;;;1.77;0.90;;;14.40;99.90;;;;;;4976061;28;20455;-83
2021/09/07 02:23:36;;;;;;;2.83;1.57;;;14.40;99.90;;;;;;4975456;28;20849;-83
2021/09/07 02:26:03;;;;;;;1.73;0.93;;;14.30;99.90;;;;;;4975479;28;20979;-82
2021/09/07 02:28:30;;;;;;;1.47;1.10;;;14.30;99.90;;;;;;4975776;28;20472;-83
2021/09/07 02:30:57;;;;;;;1.07;0.97;;;14.30;99.90;;;;;;4975897;28;20488;-83
2021/09/07 02:33:25;;;;;;;1.40;1.30;;;14.20;99.90;;;;;;4975569;28;20465;-82
2021/09/07 02:35:52;;;;;;;1.43;0.83;;;14.30;99.90;;;;;;4956408;29;20459;-82
2021/09/07 02:38:18;;;;;;;3.03;1.17;;;14.20;99.90;;;;;;4956616;29;20442;-83
2021/09/07 02:40:45;;;;;;;2.67;0.90;;;14.20;99.90;;;;;;4956237;29;20446;-83
2021/09/07 02:43:12;;;;;;;1.33;1.20;;;14.20;99.90;;;;;;4956152;28;20454;-83
2021/09/07 02:45:38;;;;;;;2.70;1.07;;;14.10;99.90;;;;;;4956297;29;20446;-83
2021/09/07 02:48:06;;;;;;;1.23;1.00;;;14.10;99.90;;;;;;4956122;29;20449;-83
2021/09/07 02:50:34;;;;;;;2.67;1.40;;;14.10;99.90;;;;;;4956302;29;20482;-83
2021/09/07 02:53:01;;;;;;;4.90;1.37;;;14.10;99.90;;;;;;4955993;28;20461;-83
2021/09/07 02:55:27;;;;;;;3.00;1.27;;;14.10;99.90;;;;;;4956272;29;20450;-83
2021/09/07 02:57:54;;;;;;;1.57;1.03;;;14.10;99.90;;;;;;4955790;29;20462;-83
2021/09/07 03:00:21;;;;;;;5.77;2.63;;;14.10;99.90;;;;;;4956561;29;20457;-83
2021/09/07 03:02:48;;;;;;;2.60;0.80;;;14.10;99.90;;;;;;4955878;29;20450;-83
2021/09/07 03:05:14;;;;;;;0.63;0.63;;;14.10;99.90;;;;;;4955578;28;20458;-82
2021/09/07 03:07:42;;;;;;;1.80;0.97;;;14.10;99.90;;;;;;4955828;29;20460;-83
2021/09/07 03:10:10;;;;;;;1.40;0.73;;;14.10;99.90;;;;;;4955398;29;21006;-83
2021/09/07 03:12:37;;;;;;;2.30;1.60;;;14.00;99.90;;;;;;4955706;29;20829;-83
2021/09/07 03:15:04;;;;;;;2.20;1.73;;;14.00;99.90;;;;;;4955510;28;20896;-83
2021/09/07 03:17:31;;;;;;;4.23;1.50;;;14.00;99.90;;;;;;4955202;28;20455;-83
2021/09/07 03:19:58;;;;;;;3.27;1.40;;;14.00;99.90;;;;;;4955638;29;20446;-83
2021/09/07 03:22:24;;;;;;;2.07;1.87;;;14.00;99.90;;;;;;4955365;29;20438;-83
2021/09/07 03:24:52;;;;;;;1.63;0.97;;;14.00;99.90;;;;;;4955249;28;20462;-82
2021/09/07 03:27:19;;;;;;;2.60;1.20;;;14.00;99.90;;;;;;4955301;29;20439;-82
2021/09/07 03:29:46;;;;;;;4.83;2.50;;;14.00;99.90;;;;;;4955464;29;20486;-83
2021/09/07 03:32:13;;;;;;;1.63;0.83;;;13.90;99.90;;;;;;4955802;29;20458;-83
2021/09/07 03:34:40;;;;;;;3.50;1.03;;;13.90;99.90;;;;;;4964839;28;20493;-83
2021/09/07 03:37:07;;;;;;;6.93;1.53;;;13.80;99.90;;;;;;4974799;28;20460;-82
2021/09/07 03:39:33;;;;;;;0.80;0.60;;;13.90;99.90;;;;;;4974683;28;20464;-83
2021/09/07 03:42:01;;;;;;;2.10;0.90;;;13.80;99.90;;;;;;4974666;28;20453;-82
2021/09/07 03:44:28;;;;;;;3.07;1.03;;;13.80;99.90;;;;;;4974561;28;20481;-83
2021/09/07 03:46:55;;;;;;;1.27;0.90;;;13.80;99.90;;;;;;4974561;28;20461;-83
2021/09/07 03:49:22;;;;;;;2.10;1.53;;;13.80;99.90;;;;;;4974492;28;20457;-83
2021/09/07 03:51:48;;;;;;;2.93;1.33;;;13.70;99.90;;;;;;4974566;28;20457;-83
2021/09/07 03:54:15;;;;;;;1.00;0.80;;;13.70;99.90;;;;;;4974204;28;20458;-82
2021/09/07 03:56:42;;;;;;;1.10;1.00;;;13.80;99.90;;;;;;4974438;28;20456;-83
2021/09/07 03:59:10;;;;;;;2.77;1.33;;;13.70;99.90;;;;;;4974467;28;20460;-82
2021/09/07 04:01:37;;;;;;;1.57;0.80;;;13.70;99.90;;;;;;4974941;28;20457;-82
2021/09/07 04:04:04;;;;;;;1.63;1.37;;;13.70;99.90;;;;;;4974479;28;20466;-83
2021/09/07 04:06:31;;;;;;;1.27;1.03;;;13.70;99.90;;;;;;4974639;28;20442;-82
2021/09/07 04:08:58;;;;;;;1.97;1.00;;;13.70;99.90;;;;;;4974149;28;20437;-83
2021/09/07 04:11:25;;;;;;;2.93;1.00;;;13.70;99.90;;;;;;4974242;28;20481;-82
2021/09/07 04:13:51;;;;;;;2.70;1.70;;;13.70;99.90;;;;;;4974945;28;20482;-82
2021/09/07 04:16:19;;;;;;;0.73;0.73;;;13.60;99.90;;;;;;4974041;28;20433;-82
2021/09/07 04:18:46;;;;;;;2.00;1.40;;;13.70;99.90;;;;;;4974299;28;20454;-82
2021/09/07 04:21:13;;;;;;;3.83;1.37;;;13.70;99.90;;;;;;4974154;28;20513;-82
2021/09/07 04:23:40;;;;;;;1.83;1.00;;;13.70;99.90;;;;;;4974021;28;20484;-83
2021/09/07 04:26:07;;;;;;;1.20;0.90;;;13.80;99.90;;;;;;4974193;28;20472;-83
2021/09/07 04:28:34;;;;;;;1.67;0.90;;;13.70;99.90;;;;;;4974966;28;20948;-83
2021/09/07 04:31:01;;;;;;;3.37;1.20;;;13.70;99.90;;;;;;4978077;28;20485;-83
2021/09/07 04:33:29;;;;;;;2.17;1.53;;;13.70;99.90;;;;;;4977748;28;20469;-83
2021/09/07 04:35:56;;;;;;;4.77;1.63;;;13.70;99.90;;;;;;4977754;28;20498;-83
2021/09/07 04:38:23;;;;;;;1.97;1.77;;;13.70;99.90;;;;;;4977580;28;20441;-83
2021/09/07 04:40:49;;;;;;;1.60;0.83;;;13.70;99.90;;;;;;4977736;28;20445;-83
2021/09/07 04:43:16;;;;;;;1.33;1.13;;;13.70;99.90;;;;;;4977697;28;20481;-83
2021/09/07 04:45:43;;;;;;;0.70;0.70;;;13.70;99.90;;;;;;4977431;28;20460;-82
2021/09/07 04:48:10;;;;;;;1.20;1.00;;;13.70;99.90;;;;;;4977365;28;20437;-83
2021/09/07 04:50:38;;;;;;;3.47;1.30;;;13.70;99.90;;;;;;4977269;28;21015;-83
2021/09/07 04:53:05;;;;;;;1.90;1.23;;;13.60;99.90;;;;;;4977172;28;20544;-83
2021/09/07 04:55:32;;;;;;;0.83;0.83;;;13.60;99.90;;;;;;4977430;28;20457;-83
2021/09/07 04:57:59;;;;;;;2.77;1.23;;;13.60;99.90;;;;;;4977417;28;20455;-83
2021/09/07 05:00:25;;;;;;;1.70;0.90;;;13.60;99.90;;;;;;4977146;28;20434;-83
2021/09/07 05:02:52;;;;;;;1.77;1.10;;;13.70;99.90;;;;;;4977327;28;20456;-82
2021/09/07 05:05:19;;;;;;;4.83;1.23;;;13.70;99.90;;;;;;4977394;28;20477;-81
2021/09/07 05:07:47;;;;;;;1.23;1.23;;;13.70;99.90;;;;;;4977285;28;20452;-82
2021/09/07 05:10:14;;;;;;;1.03;1.03;;;13.70;99.90;;;;;;4976828;28;21035;-82
2021/09/07 05:12:41;;;;;;;1.43;0.93;;;13.80;99.90;;;;;;4977338;28;20457;-82
2021/09/07 05:15:09;;;;;;;4.80;1.30;;;13.80;99.90;;;;;;4977087;28;20465;-82
2021/09/07 05:17:36;;;;;;;5.27;2.13;;;13.80;99.90;;;;;;4977072;28;20453;-82
2021/09/07 05:20:04;;;;;;;1.17;1.10;;;13.80;99.90;;;;;;4977095;28;20442;-82
2021/09/07 05:22:31;;;;;;;1.97;1.67;;;13.80;99.90;;;;;;4977033;28;20553;-82
2021/09/07 05:25:01;;;;;;;2.77;1.73;;;13.90;99.90;;;;;;4976592;28;20851;-82
2021/09/07 05:27:28;;;;;;;1.90;1.27;;;13.90;99.90;;;;;;4976719;28;20533;-82
2021/09/07 05:29:54;;;;;;;1.40;0.77;;;13.90;99.90;;;;;;4976788;28;20461;-82
2021/09/07 05:32:22;;;;;;;1.10;0.70;;;13.80;99.90;;;;;;4976855;28;20449;-82
2021/09/07 05:34:50;;;;;;;1.17;0.93;;;13.90;99.90;;;;;;4976387;28;20492;-82
2021/09/07 05:37:17;;;;;;;4.10;1.13;;;13.90;99.90;;;;;;4976575;28;20433;-82
2021/09/07 05:39:44;;;;;;;3.23;1.30;;;14.00;99.90;;;;;;4976343;28;20453;-82
2021/09/07 05:42:12;;;;;;;3.17;1.03;;;14.00;99.90;;;;;;4976652;28;20452;-82
2021/09/07 05:44:38;;;;;;;1.57;0.87;;;14.10;99.90;;;;;;4976524;28;20465;-82
2021/09/07 05:47:06;;;;;;;1.60;1.37;;;14.10;99.90;;;;;;4976434;28;20442;-82
2021/09/07 05:49:32;;;;;;;1.17;1.00;;;14.10;99.90;;;;;;4976541;28;20445;-82
2021/09/07 05:52:00;;;;;;;1.90;0.97;;;14.10;99.90;;;;;;4976466;28;20496;-82
2021/09/07 05:54:26;;;;;;;1.07;0.90;;;14.10;99.90;;;;;;4976436;28;20472;-82
2021/09/07 05:56:54;;;;;;;1.73;1.00;;;14.10;99.90;;;;;;4976098;28;20825;-82
2021/09/07 05:59:22;;;;;;;5.67;1.33;;;14.20;99.90;;;;;;4977021;28;20874;-82
2021/09/07 06:01:49;;;;;;;1.23;1.07;;;14.20;99.90;;;;;;4976305;28;20788;-82
2021/09/07 06:04:16;;;;;;;3.13;1.20;;;14.20;99.90;;;;;;4975903;28;20973;-81
2021/09/07 06:06:42;;;;;;;3.37;1.63;;;14.20;99.90;;;;;;4976237;28;20448;-83
2021/09/07 06:09:09;;;;;;;6.53;1.70;;;14.30;99.90;;;;;;4976156;28;20456;-82
2021/09/07 06:11:38;;;;;;;4.50;1.33;;;14.30;99.90;;;;;;4976058;28;20488;-82
2021/09/07 06:14:05;;;;;;;3.33;1.20;;;14.40;99.90;;;;;;4976014;28;20497;-82
2021/09/07 06:16:33;;;;;;;1.57;1.30;;;14.40;99.90;;;;;;4976245;28;20456;-82
2021/09/07 06:18:59;;;;;;;5.03;1.27;;;14.50;99.90;;;;;;4975985;28;20446;-82
2021/09/07 06:21:26;;;;;;;0.73;0.70;;;14.60;99.90;;;;;;4975731;28;20453;-82
2021/09/07 06:23:53;;;;;;;3.30;1.10;;;14.70;99.90;;;;;;4975707;28;20484;-82
2021/09/07 06:26:20;;;;;;;2.43;0.93;;;14.70;99.90;;;;;;4975531;28;20434;-82
2021/09/07 06:28:46;;;;;;;1.20;1.17;;;14.80;99.90;;;;;;4975792;28;20441;-82
2021/09/07 06:31:13;;;;;;;7.57;1.70;;;14.90;99.90;;;;;;4975591;28;20512;-82
2021/09/07 06:33:41;;;;;;;1.83;1.73;;;15.00;99.90;;;;;;4975432;28;20828;-82
2021/09/07 06:36:08;;;;;;;2.70;1.40;;;15.00;99.90;;;;;;4975414;28;20436;-82
2021/09/07 06:38:35;;;;;;;1.13;0.80;;;15.10;99.90;;;;;;4975907;28;20434;-82
2021/09/07 06:41:03;;;;;;;1.83;1.67;;;15.20;99.90;;;;;;4975382;28;20429;-82
2021/09/07 06:43:30;;;;;;;2.87;1.13;;;15.30;99.90;;;;;;4975432;28;20528;-82
2021/09/07 06:45:57;;;;;;;2.13;1.33;;;15.50;99.90;;;;;;4975484;28;20793;-82
2021/09/07 06:48:24;;;;;;;1.80;1.27;;;15.60;99.90;;;;;;4975164;28;20422;-82
2021/09/07 06:50:52;;;;;;;2.50;1.80;;;15.80;99.90;;;;;;4974641;28;20481;-82
2021/09/07 06:53:18;;;;;;;1.03;1.03;;;15.90;99.90;;;;;;4975308;28;20473;-82
2021/09/07 06:55:45;;;;;;;2.23;1.10;;;16.00;99.90;;;;;;4975361;28;20760;-82
2021/09/07 06:58:12;;;;;;;4.90;2.03;;;16.10;99.90;;;;;;4975291;28;20576;-82
2021/09/07 07:00:39;;;;;;;5.67;1.90;;;16.20;99.90;;;;;;4975240;28;20440;-82
2021/09/07 07:03:05;;;;;;;6.33;2.40;;;16.20;99.90;;;;;;4974824;28;20448;-82
2021/09/07 07:05:32;;;;;;;2.90;1.57;;;16.30;99.90;;;;;;4974811;28;20464;-83
2021/09/07 07:08:01;;;;;;;5.73;1.50;;;16.50;99.90;;;;;;4975050;28;20450;-83
2021/09/07 07:10:28;;;;;;;4.17;1.80;;;16.60;99.90;;;;;;4974972;28;20823;-82
2021/09/07 07:12:54;;;;;;;3.20;1.73;;;16.70;99.90;;;;;;4974709;28;20434;-83
2021/09/07 07:15:21;;;;;;;3.60;1.47;;;16.80;99.90;;;;;;4974867;28;20465;-83
2021/09/07 07:17:48;;;;;;;2.50;1.20;;;16.80;99.90;;;;;;4974897;28;20460;-83
2021/09/07 07:20:15;;;;;;;3.10;1.87;;;16.90;99.90;;;;;;4974820;28;20449;-83
2021/09/07 07:22:42;;;;;;;3.97;1.87;;;16.90;99.90;;;;;;4974505;28;20923;-82
2021/09/07 07:25:11;;;;;;;4.97;2.23;;;17.00;99.90;;;;;;4974720;28;20481;-83
2021/09/07 07:27:39;;;;;;;1.67;1.57;;;17.10;99.90;;;;;;4974839;28;20456;-82
2021/09/07 07:30:07;;;;;;;6.30;1.33;;;17.10;99.90;;;;;;4974866;28;20465;-83
2021/09/07 07:32:34;;;;;;;5.13;1.80;;;17.10;99.90;;;;;;4974384;28;20485;-83
2021/09/07 07:35:01;;;;;;;3.43;2.20;;;17.20;99.90;;;;;;4974269;28;20516;-83
2021/09/07 07:37:28;;;;;;;2.77;1.87;;;17.30;99.90;;;;;;4974443;28;20799;-83
2021/09/07 07:39:55;;;;;;;2.20;1.40;;;17.50;99.90;;;;;;4974770;28;20453;-83
2021/09/07 07:42:23;;;;;;;1.47;1.37;;;17.70;99.90;;;;;;4974660;28;20441;-82
2021/09/07 07:44:50;;;;;;;4.57;2.13;;;17.90;99.90;;;;;;4974271;28;20473;-83
2021/09/07 07:47:17;;;;;;;3.00;1.73;;;18.20;99.90;;;;;;4974541;28;20461;-83
2021/09/07 07:49:44;;;;;;;6.10;1.47;;;18.30;99.90;;;;;;4974550;28;20968;-86
2021/09/07 07:52:11;;;;;;;2.90;1.77;;;18.50;99.90;;;;;;4974742;28;20485;-87
2021/09/07 07:54:37;;;;;;;2.90;2.23;;;18.60;99.90;;;;;;4974556;28;20461;-86
2021/09/07 07:57:05;;;;;;;3.87;1.60;;;18.70;99.90;;;;;;4974538;28;20445;-86
2021/09/07 07:59:33;;;;;;;2.97;1.77;;;19.00;99.90;;;;;;4974748;28;20477;-87
2021/09/07 08:02:00;;;;;;;3.03;1.30;;;19.20;99.90;;;;;;4975136;28;20441;-87
2021/09/07 08:04:26;;;;;;;2.53;2.30;;;19.40;99.90;;;;;;4978751;28;20469;-87
2021/09/07 08:06:53;;;;;;;2.83;1.30;;;19.60;99.90;;;;;;4978822;28;20440;-87
2021/09/07 08:09:20;;;;;;;6.00;1.50;;;19.70;99.90;;;;;;4978720;28;20456;-87
2021/09/07 08:11:47;;;;;;;3.90;2.43;;;19.80;99.90;;;;;;4978439;28;20473;-87
2021/09/07 08:14:13;;;;;;;4.77;1.47;;;19.80;99.90;;;;;;4978263;28;20484;-87
2021/09/07 08:16:42;;;;;;;2.53;2.20;;;19.90;99.90;;;;;;4978481;28;20941;-87
2021/09/07 08:19:08;;;;;;;4.17;1.60;;;20.00;99.90;;;;;;4978806;28;20452;-87
2021/09/07 08:21:35;;;;;;;1.63;1.53;;;20.10;99.90;;;;;;4978349;28;20951;-87
2021/09/07 08:24:02;;;;;;;2.17;1.20;;;20.10;99.90;;;;;;4978497;28;20477;-88
2021/09/07 08:26:29;;;;;;;3.40;1.70;;;20.10;99.90;;;;;;4978676;28;20452;-88
2021/09/07 08:28:55;;;;;;;2.17;1.20;;;20.10;99.90;;;;;;4978518;28;20463;-87
2021/09/07 08:31:23;;;;;;;1.67;1.10;;;20.30;99.90;;;;;;4978218;28;20480;-87
2021/09/07 08:33:51;;;;;;;2.30;1.63;;;20.50;99.90;;;;;;4977868;28;20980;-87
2021/09/07 08:36:24;;;;;;;4.83;1.20;;;20.60;99.90;;;;;;4978529;28;20433;-88
2021/09/07 08:38:53;;;;;;;3.20;1.50;;;20.80;99.90;;;;;;4979112;28;20440;-88
2021/09/07 08:41:26;;;;;;;2.40;1.43;;;20.80;99.90;;;;;;4978738;28;20421;-88
2021/09/07 08:43:54;;;;;;;2.00;1.43;;;20.90;99.90;;;;;;4978379;28;20818;-88
2021/09/07 08:46:20;;;;;;;4.03;1.70;;;21.00;99.90;;;;;;4978559;28;20444;-89
2021/09/07 08:48:49;;;;;;;4.73;1.53;;;21.10;99.90;;;;;;4978265;28;20414;-89
2021/09/07 08:51:18;;;;;;;3.37;1.83;;;21.20;99.90;;;;;;4978469;28;20480;-88
2021/09/07 08:53:46;;;;;;;3.43;1.50;;;21.50;99.90;;;;;;4978650;28;20571;-88
2021/09/07 08:56:13;;;;;;;3.17;1.53;;;21.60;99.90;;;;;;4978419;28;20443;-88
2021/09/07 08:58:40;;;;;;;1.93;1.00;;;21.70;99.90;;;;;;4978315;28;20424;-88
2021/09/07 09:01:11;;;;;;;2.10;1.40;;;21.90;99.90;;;;;;4978437;28;20437;-88
2021/09/07 09:03:41;;;;;;;2.10;0.90;;;22.10;99.90;;;;;;4978440;28;20476;-87
2021/09/07 09:06:08;;;;;;;2.50;1.07;;;22.40;99.90;;;;;;4978916;28;20445;-88
2021/09/07 09:08:38;;;;;;;2.27;1.93;;;22.70;99.90;;;;;;4978213;28;20448;-89
2021/09/07 09:11:06;;;;;;;1.93;0.97;;;22.80;99.90;;;;;;4977929;28;20436;-88
2021/09/07 09:13:44;;;;;;;2.47;1.63;;;22.90;99.90;;;;;;4977420;28;20488;-89
2021/09/07 09:16:13;;;;;;;1.27;1.10;;;23.00;99.90;;;;;;4978177;28;20447;-88
2021/09/07 09:18:42;;;;;;;1.90;1.50;;;23.00;99.90;;;;;;4977640;28;20190;-88
2021/09/07 09:21:26;;;;;;;1.80;1.17;;;23.10;99.90;;;;;;4979873;28;20186;-90
2021/09/07 09:24:14;;;;;;;1.70;1.23;;;23.20;99.90;;;;;;4999891;28;20236;-89
2021/09/07 09:26:55;;;;;;;4.10;2.23;;;23.30;99.90;;;;;;4984918;28;20296;-88
2021/09/07 09:29:23;;;;;;;1.10;1.10;;;23.40;99.90;;;;;;4980956;28;20193;-89
2021/09/07 09:31:51;;;;;;;4.13;2.23;;;23.50;99.90;;;;;;4979203;28;20205;-87
2021/09/07 09:34:19;;;;;;;1.27;1.17;;;23.70;99.90;;;;;;4977852;28;20331;-86
2021/09/07 09:36:59;;;;;;;1.98;1.15;;;24.00;99.20;;;;;;4977342;28;20193;-84
2021/09/07 09:39:42;;;;;;;1.52;1.15;;;24.10;97.80;;;;;;4976867;28;20224;-84
2021/09/07 09:42:11;;;;;;;4.07;1.95;;;24.30;97.80;;;;;;4976974;28;20558;-84
2021/09/07 09:44:38;;;;;;;1.10;1.00;;;24.50;97.50;;;;;;4976309;28;20752;-82
2021/09/07 09:47:05;;;;;;;4.22;2.88;;;24.60;95.70;;;;;;4976549;28;20188;-84
2021/09/07 09:49:33;;;;;;;1.70;1.50;;;24.70;96.10;;;;;;4981358;28;20201;-84
2021/09/07 09:52:03;;;;;;;1.27;1.17;;;24.90;95.70;;;;;;4976202;28;20584;-84
2021/09/07 09:54:32;;;;;;;2.25;1.25;;;24.90;96.30;;;;;;4977138;28;20256;-84
2021/09/07 09:57:03;;;;;;;2.28;1.60;;;25.10;94.40;;;;;;4976432;28;20206;-83
2021/09/07 09:59:30;;;;;;;2.90;1.67;;;25.10;93.00;;;;;;4976712;28;20213;-83
2021/09/07 10:01:58;;;;;;;3.20;1.38;;;25.10;93.10;;;;;;4976360;28;20213;-84
2021/09/07 10:04:27;;;;;;;2.40;1.63;;;24.90;93.60;;;;;;4976319;28;20253;-84
2021/09/07 10:06:55;;;;;;;1.55;1.40;;;24.70;93.70;;;;;;4976459;28;20312;-85
2021/09/07 10:09:23;;;;;;;1.40;1.10;;;24.40;94.20;;;;;;4976300;28;20182;-85
2021/09/07 10:12:00;;;;;;;1.85;1.13;;;24.30;95.10;;;;;;4976186;28;20216;-84
2021/09/07 10:14:32;;;;;;;4.22;1.80;;;24.40;94.20;;;;;;4975803;28;20217;-83
2021/09/07 10:17:25;;;;;;;3.80;1.42;;;24.50;92.80;;;;;;4975831;28;20256;-84
2021/09/07 10:20:00;;;;;;;3.05;1.50;;;24.60;93.50;;;;;;4976078;28;20244;-84
2021/09/07 10:23:12;;;;;;;2.50;1.48;;;24.60;92.60;;;;;;4976495;28;20256;-84
2021/09/07 10:25:56;;;;;;;3.13;1.73;;;24.70;92.20;;;;;;4975756;28;20312;-84
2021/09/07 10:28:34;;;;;;;1.42;1.33;;;24.60;93.00;;;;;;4976312;28;20208;-86
2021/09/07 10:31:05;;;;;;;3.17;1.63;;;24.80;91.70;;;;;;4975523;28;20562;-80
2021/09/07 10:33:38;;;;;;;1.08;0.98;;;24.90;91.40;;;;;;4975631;28;20236;-84
2021/09/07 10:36:07;;;;;;;2.00;1.83;;;25.00;91.30;;;;;;4975180;28;20313;-83
2021/09/07 10:41:56;;;;;;;1.30;1.20;;;24.80;89.70;;;;;;4975663;28;20181;-84
2021/09/07 10:44:32;;;;;;;1.10;1.00;;;24.90;90.50;;;;;;4975290;28;20732;-83
2021/09/07 10:47:13;;;;;;;2.60;1.52;;;25.00;91.00;;;;;;4975293;28;20204;-82
2021/09/07 10:49:45;;;;;;;2.90;1.40;;;25.20;88.60;;;;;;4976032;28;20185;-82
2021/09/07 10:52:33;;;;;;;1.40;1.30;;;25.40;89.10;;;;;;4975421;28;20206;-83
2021/09/07 10:55:19;;;;;;;1.85;1.20;;;25.50;87.30;;;;;;4975451;28;20315;-83
2021/09/07 10:57:53;;;;;;;2.60;1.50;;;25.90;86.80;;;;;;4975354;28;20692;-83
2021/09/07 11:00:36;;;;;;;3.30;2.17;;;26.20;84.00;;;;;;4975761;28;20536;-84
2021/09/07 11:03:09;;;;;;;1.92;1.30;;;26.40;82.90;;;;;;4975626;28;20197;-84
2021/09/07 11:05:41;;;;;;;3.63;1.50;;;26.40;82.20;;;;;;4975218;28;20260;-82
2021/09/07 11:08:11;;;;;;;2.67;1.35;;;26.30;82.70;;;;;;4975184;28;20192;-84
2021/09/07 11:10:40;;;;;;;1.88;1.10;;;26.00;81.80;;;;;;4974814;28;20190;-84
2021/09/07 11:13:08;;;;;;;4.05;1.45;;;25.80;85.00;;;;;;4974756;28;20697;-83
2021/09/07 11:15:36;;;;;;;1.60;1.00;;;25.50;81.50;;;;;;4975214;28;20189;-84
2021/09/07 11:18:06;;;;;;;3.45;1.77;;;25.40;82.30;;;;;;4974820;28;20209;-83
2021/09/07 11:20:34;;;;;;;1.48;1.38;;;25.30;82.00;;;;;;4975460;28;20182;-82
2021/09/07 11:23:09;;;;;;;1.55;1.35;;;25.10;82.10;;;;;;4975260;28;20550;-84
2021/09/07 11:25:37;;;;;;;2.50;1.25;;;25.00;84.10;;;;;;4974914;28;20201;-84
2021/09/07 11:28:06;;;;;;;3.63;1.85;;;25.00;83.20;;;;;;4975490;28;20240;-84
2021/09/07 11:30:35;;;;;;;2.13;1.40;;;24.90;84.30;;;;;;4974638;28;20205;-83
2021/09/07 11:33:06;;;;;;;3.65;1.73;;;24.90;85.20;;;;;;4974609;28;20210;-83
2021/09/07 11:35:36;;;;;;;2.25;1.10;;;24.90;83.10;;;;;;4974625;28;20349;-83
2021/09/07 11:38:05;;;;;;;2.35;1.52;;;24.80;83.30;;;;;;4974465;28;20263;-84
2021/09/07 11:40:32;;;;;;;3.15;1.58;;;24.60;83.60;;;;;;4974776;28;20186;-84
2021/09/07 11:43:00;;;;;;;2.58;1.50;;;24.60;84.50;;;;;;4974299;28;20182;-83
2021/09/07 11:45:29;;;;;;;2.22;1.75;;;24.70;86.80;;;;;;4974590;28;20193;-84
2021/09/07 11:47:56;;;;;;;2.10;1.60;;;24.60;85.30;;;;;;4974748;28;20205;-83
2021/09/07 11:50:29;;;;;;;1.85;1.58;;;24.60;85.70;;;;;;4974322;28;20650;-84
2021/09/07 11:52:57;;;;;;;2.28;1.55;;;24.60;89.20;;;;;;4974479;28;20269;-81
2021/09/07 11:55:57;;;;;;;1.27;0.80;;;24.60;85.70;;;;;;4974565;28;20559;-81
2021/09/07 11:58:35;;;;;;;1.20;1.10;;;24.80;84.90;;;;;;4974306;28;20237;-82
2021/09/07 12:01:13;;;;;;;1.05;0.90;;;24.70;80.40;;;;;;4974232;28;20181;-83
2021/09/07 12:03:46;;;;;;;2.72;1.60;;;24.70;81.90;;;;;;4974455;28;20225;-83
2021/09/07 12:06:17;;;;;;;1.38;1.27;;;24.60;82.60;;;;;;4974427;28;20718;-84
2021/09/07 12:08:46;;;;;;;2.53;1.35;;;24.70;81.00;;;;;;4974433;28;20186;-84
2021/09/07 12:11:26;;;;;;;1.67;1.58;;;24.70;79.80;;;;;;4974510;28;20178;-83
2021/09/07 12:14:03;;;;;;;2.50;1.30;;;24.70;78.80;;;;;;4974330;28;20225;-84
2021/09/07 12:16:30;;;;;;;1.98;1.20;;;24.50;79.20;;;;;;4974391;28;20178;-81
2021/09/07 12:18:57;;;;;;;1.77;1.50;;;24.50;78.30;;;;;;4974383;28;20213;-82
2021/09/07 12:21:26;;;;;;;2.38;1.40;;;24.40;77.90;;;;;;4973977;28;20646;-83
2021/09/07 12:23:55;;;;;;;3.27;1.20;;;24.40;75.30;;;;;;4974259;28;20227;-81
2021/09/07 12:26:39;;;;;;;4.55;1.38;;;24.40;73.10;;;;;;4974460;28;20205;-81
2021/09/07 12:29:13;;;;;;;2.10;1.43;;;24.40;73.60;;;;;;4974625;28;20190;-84
2021/09/07 12:31:40;;;;;;;2.30;1.70;;;24.30;75.40;;;;;;4973995;28;20181;-82
2021/09/07 12:34:07;;;;;;;1.50;1.40;;;24.20;78.00;;;;;;4973686;28;20236;-83
2021/09/07 12:36:46;;;;;;;2.23;1.50;;;24.10;78.30;;;;;;4974213;28;20208;-83
2021/09/07 12:39:13;;;;;;;2.50;1.58;;;24.10;78.80;;;;;;4973948;28;20185;-83
2021/09/07 12:41:40;;;;;;;2.20;1.33;;;24.10;77.80;;;;;;4974128;28;20194;-82
2021/09/07 12:44:06;;;;;;;10.63;1.70;;;24.00;78.10;;;;;;4973827;28;20595;-82
2021/09/07 12:46:34;;;;;;;1.20;1.10;;;23.90;79.00;;;;;;4975392;28;20560;-84
2021/09/07 12:49:01;;;;;;;4.60;1.17;;;23.90;77.40;;;;;;4974672;28;20217;-84
2021/09/07 12:51:28;;;;;;;1.77;1.40;;;23.90;78.80;;;;;;4977724;28;20553;-85
2021/09/07 12:53:59;;;;;;;1.97;1.47;;;23.90;77.70;;;;;;4977709;28;20233;-83
2021/09/07 12:56:29;;;;;;;1.80;1.20;;;24.00;77.90;;;;;;4977821;28;20205;-81
2021/09/07 12:58:57;;;;;;;2.93;1.30;;;24.00;76.20;;;;;;4978018;28;20284;-82